Time;durP1;ratioP1;P1;durP2;ratioP2;P2;SDS_P1;SDS_P2;PMS_P1;PMS_P2;Temp;Humidity;BMP_temperature;BMP_pressure;BME280_temperature;BME280_humidity;BME280_pressure;Samples;Min_cycle;Max_cycle;Signal;HPM_P1;HPM_P2
2023/07/14 00:01:24;;;;;;;3.60;3.30;;;14.70;99.70;;;;;;5039596;28;20675;-60
2023/07/14 00:03:50;;;;;;;5.87;3.20;;;14.70;99.60;;;;;;5034433;28;20493;-60
2023/07/14 00:06:17;;;;;;;4.67;3.27;;;14.60;99.40;;;;;;5043171;28;21080;-61
2023/07/14 00:08:44;;;;;;;7.37;4.27;;;14.60;99.70;;;;;;5043285;28;20433;-60
2023/07/14 00:11:15;;;;;;;7.10;3.53;;;14.60;99.90;;;;;;5042869;28;20426;-61
2023/07/14 00:13:41;;;;;;;7.10;3.33;;;14.60;99.90;;;;;;5040152;28;20449;-60
2023/07/14 00:16:22;;;;;;;5.03;3.03;;;14.60;99.90;;;;;;5044571;28;20502;-61
2023/07/14 00:18:48;;;;;;;5.87;3.70;;;14.60;99.90;;;;;;5034246;28;20191;-60
2023/07/14 00:21:21;;;;;;;6.43;3.33;;;14.50;99.90;;;;;;5041536;28;20498;-61
2023/07/14 00:23:47;;;;;;;5.60;3.40;;;14.50;99.90;;;;;;5043223;28;20843;-59
2023/07/14 00:26:19;;;;;;;5.33;3.37;;;14.50;99.90;;;;;;5044883;28;20420;-60
2023/07/14 00:28:48;;;;;;;4.90;3.93;;;14.50;99.90;;;;;;5038807;28;20228;-60
2023/07/14 00:31:15;;;;;;;7.30;3.43;;;14.50;99.90;;;;;;5038057;28;20434;-60
2023/07/14 00:33:43;;;;;;;4.87;3.40;;;14.40;99.90;;;;;;5040025;28;20454;-60
2023/07/14 00:36:09;;;;;;;6.10;3.50;;;14.40;99.90;;;;;;5038873;28;20435;-60
2023/07/14 00:38:35;;;;;;;9.30;4.20;;;14.40;99.90;;;;;;5041001;28;20466;-60
2023/07/14 00:41:01;;;;;;;8.30;3.73;;;14.40;99.90;;;;;;5032354;28;20513;-60
2023/07/14 00:43:29;;;;;;;8.70;3.70;;;14.40;99.90;;;;;;5037911;28;20226;-60
2023/07/14 00:45:56;;;;;;;3.90;3.50;;;14.40;99.90;;;;;;5042376;28;20426;-61
2023/07/14 00:48:24;;;;;;;3.37;3.00;;;14.30;99.90;;;;;;5041747;28;20522;-61
2023/07/14 00:51:03;;;;;;;5.57;3.67;;;14.30;99.90;;;;;;5031904;28;20425;-62
2023/07/14 00:53:37;;;;;;;3.53;3.23;;;14.30;99.90;;;;;;5040461;28;20460;-61
2023/07/14 00:56:12;;;;;;;6.43;3.93;;;14.30;99.90;;;;;;5038325;28;20457;-61
2023/07/14 00:58:46;;;;;;;6.60;3.53;;;14.20;99.90;;;;;;5033198;28;20429;-61
2023/07/14 01:01:14;;;;;;;5.17;3.57;;;14.20;99.90;;;;;;5041921;28;20469;-61
2023/07/14 01:03:41;;;;;;;4.33;3.00;;;14.10;99.90;;;;;;5040191;28;20485;-61
2023/07/14 01:06:27;;;;;;;8.20;3.57;;;14.10;99.90;;;;;;5035518;28;20430;-61
2023/07/14 01:08:57;;;;;;;6.27;3.30;;;14.10;99.90;;;;;;5031660;28;20580;-61
2023/07/14 01:11:35;;;;;;;6.20;3.67;;;14.10;99.90;;;;;;5041678;28;21109;-61
2023/07/14 01:14:06;;;;;;;3.90;3.17;;;14.10;99.90;;;;;;5040714;28;20448;-61
2023/07/14 01:16:36;;;;;;;3.40;3.10;;;14.10;99.90;;;;;;5035754;28;20464;-60
2023/07/14 01:19:14;;;;;;;5.77;3.90;;;14.00;99.90;;;;;;5040781;28;20433;-61
2023/07/14 01:21:43;;;;;;;8.20;4.03;;;14.00;99.90;;;;;;5033696;28;20482;-60
2023/07/14 01:24:21;;;;;;;7.63;3.10;;;14.00;99.90;;;;;;5036673;28;20456;-61
2023/07/14 01:27:05;;;;;;;9.13;3.83;;;14.00;99.90;;;;;;5039736;28;20456;-61
2023/07/14 01:29:32;;;;;;;3.83;3.20;;;13.90;99.90;;;;;;5036677;28;20434;-61
2023/07/14 01:31:59;;;;;;;7.57;3.63;;;13.90;99.90;;;;;;5044222;28;20789;-61
2023/07/14 01:34:26;;;;;;;5.60;3.50;;;13.90;99.90;;;;;;5040802;28;21087;-62
2023/07/14 01:36:58;;;;;;;5.40;4.00;;;13.80;99.90;;;;;;5028294;28;20974;-62
2023/07/14 01:39:24;;;;;;;4.13;3.47;;;13.80;99.90;;;;;;5036869;28;20818;-61
2023/07/14 01:41:50;;;;;;;7.73;3.60;;;13.70;99.90;;;;;;5038049;28;20865;-61
2023/07/14 01:44:18;;;;;;;6.90;3.27;;;13.70;99.90;;;;;;5043341;28;20529;-61
2023/07/14 01:46:45;;;;;;;6.20;3.50;;;13.60;99.90;;;;;;5032820;28;20268;-61
2023/07/14 01:49:27;;;;;;;5.50;3.70;;;13.60;99.90;;;;;;5041039;28;20415;-62
2023/07/14 01:51:57;;;;;;;10.30;4.17;;;13.60;99.90;;;;;;5040357;28;20425;-61
2023/07/14 01:54:36;;;;;;;5.23;3.93;;;13.60;99.90;;;;;;5037799;28;21103;-61
2023/07/14 01:57:06;;;;;;;4.03;3.33;;;13.60;99.90;;;;;;5041318;28;21140;-61
2023/07/14 01:59:35;;;;;;;6.00;3.47;;;13.50;99.90;;;;;;5047864;28;20435;-61
2023/07/14 02:02:03;;;;;;;5.40;3.50;;;13.50;99.90;;;;;;5035895;28;20545;-59
2023/07/14 02:04:33;;;;;;;3.77;3.40;;;13.50;99.90;;;;;;5040282;28;20441;-60
2023/07/14 02:07:01;;;;;;;6.17;3.73;;;13.50;99.90;;;;;;5037618;28;20414;-60
2023/07/14 02:09:28;;;;;;;6.10;3.43;;;13.40;99.90;;;;;;5045020;28;20406;-60
2023/07/14 02:12:02;;;;;;;7.60;3.73;;;13.40;99.90;;;;;;5038251;28;20928;-60
2023/07/14 02:14:41;;;;;;;5.50;3.67;;;13.40;99.90;;;;;;5038684;28;20449;-60
2023/07/14 02:17:16;;;;;;;7.83;3.30;;;13.30;99.90;;;;;;5034557;28;20437;-60
2023/07/14 02:19:42;;;;;;;10.80;4.20;;;13.30;99.90;;;;;;5043969;28;20429;-59
2023/07/14 02:22:08;;;;;;;3.83;3.53;;;13.30;99.90;;;;;;5041185;28;20458;-60
2023/07/14 02:24:33;;;;;;;9.73;4.60;;;13.30;99.90;;;;;;5044387;28;20969;-60
2023/07/14 02:27:02;;;;;;;4.90;3.40;;;13.20;99.90;;;;;;5043091;28;20186;-61
2023/07/14 02:29:29;;;;;;;4.00;3.13;;;13.20;99.90;;;;;;5043425;28;20202;-61
2023/07/14 02:32:02;;;;;;;4.60;3.40;;;13.20;99.90;;;;;;5048885;28;20830;-61
2023/07/14 02:34:33;;;;;;;4.87;3.43;;;13.20;99.90;;;;;;5038621;28;20969;-59
2023/07/14 02:37:24;;;;;;;4.40;3.70;;;13.20;99.90;;;;;;5031407;28;20422;-60
2023/07/14 02:39:51;;;;;;;5.90;3.70;;;13.20;99.90;;;;;;5041347;28;21170;-60
2023/07/14 02:42:16;;;;;;;6.47;3.50;;;13.10;99.90;;;;;;5044131;28;20466;-60
2023/07/14 02:44:42;;;;;;;5.73;3.60;;;13.10;99.90;;;;;;5042324;28;20441;-61
2023/07/14 02:47:17;;;;;;;6.33;4.07;;;13.10;99.90;;;;;;5033846;28;20176;-61
2023/07/14 02:49:48;;;;;;;3.60;3.07;;;13.10;99.90;;;;;;5042236;28;20179;-61
2023/07/14 02:52:14;;;;;;;6.57;3.57;;;13.10;99.90;;;;;;5037780;28;20497;-61
2023/07/14 02:54:40;;;;;;;7.87;4.27;;;13.10;99.90;;;;;;5043592;28;20978;-60
2023/07/14 02:57:05;;;;;;;4.57;3.43;;;13.10;99.90;;;;;;5042105;28;20528;-59
2023/07/14 02:59:31;;;;;;;5.10;4.00;;;13.10;99.90;;;;;;5036459;28;23269;-62
2023/07/14 03:01:57;;;;;;;8.40;4.07;;;13.00;99.90;;;;;;5035078;28;21011;-61
2023/07/14 03:04:23;;;;;;;4.70;3.20;;;13.00;99.90;;;;;;5038968;28;20203;-61
2023/07/14 03:06:49;;;;;;;9.50;3.47;;;13.00;99.90;;;;;;5035808;28;20711;-61
2023/07/14 03:09:16;;;;;;;6.43;3.47;;;12.90;99.90;;;;;;5039740;28;20522;-60
2023/07/14 03:11:42;;;;;;;6.77;3.43;;;12.90;99.90;;;;;;5033889;28;20438;-60
2023/07/14 03:14:08;;;;;;;8.20;3.80;;;12.90;99.90;;;;;;5040270;28;20966;-61
2023/07/14 03:16:35;;;;;;;5.63;3.40;;;12.80;99.90;;;;;;5043759;28;20175;-61
2023/07/14 03:19:02;;;;;;;6.03;4.20;;;12.80;99.90;;;;;;5040857;28;21010;-61
2023/07/14 03:21:28;;;;;;;5.77;3.30;;;12.80;99.90;;;;;;5042313;28;20437;-61
2023/07/14 03:23:54;;;;;;;6.77;3.60;;;12.80;99.90;;;;;;5041019;28;21001;-61
2023/07/14 03:26:19;;;;;;;7.57;3.53;;;12.70;99.90;;;;;;5034733;28;20442;-61
2023/07/14 03:28:45;;;;;;;5.70;3.70;;;12.70;99.90;;;;;;5042357;28;20896;-60
2023/07/14 03:31:11;;;;;;;8.23;4.20;;;12.70;99.90;;;;;;5045215;28;20179;-61
2023/07/14 03:33:39;;;;;;;6.67;3.53;;;12.70;99.90;;;;;;5043794;28;20199;-60
2023/07/14 03:36:09;;;;;;;4.90;3.50;;;12.70;99.90;;;;;;5040535;28;20187;-61
2023/07/14 03:38:39;;;;;;;5.87;3.40;;;12.70;99.90;;;;;;5039143;28;20473;-60
2023/07/14 03:41:04;;;;;;;6.33;3.40;;;12.70;99.90;;;;;;5041996;28;20949;-61
2023/07/14 03:43:30;;;;;;;5.77;3.80;;;12.60;99.90;;;;;;5041069;28;20465;-60
2023/07/14 03:45:59;;;;;;;3.67;3.33;;;12.60;99.90;;;;;;5036758;28;20182;-61
2023/07/14 03:48:24;;;;;;;6.47;3.20;;;12.60;99.90;;;;;;5037130;28;20174;-61
2023/07/14 03:50:50;;;;;;;6.13;3.60;;;12.60;99.90;;;;;;5037713;28;20492;-61
2023/07/14 03:53:16;;;;;;;8.93;3.63;;;12.60;99.90;;;;;;5040731;28;20175;-59
2023/07/14 03:55:42;;;;;;;6.80;3.87;;;12.50;99.90;;;;;;5043493;28;20273;-59
2023/07/14 03:58:08;;;;;;;9.00;4.13;;;12.50;99.90;;;;;;5040718;28;20461;-60
2023/07/14 04:00:33;;;;;;;4.97;3.60;;;12.50;99.90;;;;;;5027375;28;20932;-60
2023/07/14 04:02:59;;;;;;;5.60;3.80;;;12.50;99.90;;;;;;5038316;28;20225;-59
2023/07/14 04:05:26;;;;;;;5.20;3.83;;;12.50;99.90;;;;;;5033088;28;20211;-60
2023/07/14 04:07:52;;;;;;;11.30;3.90;;;12.50;99.90;;;;;;5044241;28;20433;-60
2023/07/14 04:10:18;;;;;;;7.20;3.60;;;12.50;99.90;;;;;;5030245;28;20456;-61
2023/07/14 04:12:47;;;;;;;6.87;4.10;;;12.50;99.90;;;;;;5036326;28;20540;-60
2023/07/14 04:15:13;;;;;;;10.20;4.50;;;12.50;99.90;;;;;;5026260;28;20458;-60
2023/07/14 04:17:38;;;;;;;7.30;4.27;;;12.50;99.90;;;;;;5036620;28;20957;-60
2023/07/14 04:20:07;;;;;;;5.67;4.03;;;12.60;99.90;;;;;;5036719;28;20179;-61
2023/07/14 04:22:33;;;;;;;11.27;3.70;;;12.60;99.90;;;;;;5031705;28;20261;-62
2023/07/14 04:24:59;;;;;;;4.53;4.07;;;12.60;99.90;;;;;;5037966;28;20446;-61
2023/07/14 04:27:26;;;;;;;5.20;4.13;;;12.60;99.90;;;;;;5038359;28;20563;-64
2023/07/14 04:29:52;;;;;;;6.20;3.97;;;12.60;99.90;;;;;;5035028;28;20176;-61
2023/07/14 04:32:17;;;;;;;8.83;4.00;;;12.70;99.90;;;;;;5036645;28;20436;-60
2023/07/14 04:34:43;;;;;;;6.87;4.83;;;12.70;99.90;;;;;;5026751;28;20630;-61
2023/07/14 04:37:09;;;;;;;8.10;4.37;;;12.70;99.90;;;;;;5032465;28;20267;-61
2023/07/14 04:39:35;;;;;;;7.43;4.10;;;12.70;99.90;;;;;;5038114;28;20712;-61
2023/07/14 04:42:01;;;;;;;12.90;4.47;;;12.80;99.90;;;;;;5035512;28;20663;-59
2023/07/14 04:44:26;;;;;;;9.00;4.70;;;12.80;99.90;;;;;;5025341;28;20199;-60
2023/07/14 04:46:52;;;;;;;5.90;3.63;;;12.80;99.90;;;;;;5023959;28;20430;-59
2023/07/14 04:49:18;;;;;;;5.30;4.10;;;12.80;99.90;;;;;;5028248;28;20277;-60
2023/07/14 04:51:44;;;;;;;6.90;4.00;;;12.90;99.90;;;;;;5031262;28;20187;-59
2023/07/14 04:54:10;;;;;;;8.53;4.40;;;13.00;99.90;;;;;;5028535;28;20235;-60
2023/07/14 04:56:37;;;;;;;10.57;3.93;;;13.00;99.90;;;;;;5026768;28;20435;-59
2023/07/14 04:59:05;;;;;;;7.37;3.87;;;13.10;99.90;;;;;;5031309;28;20430;-59
2023/07/14 05:01:31;;;;;;;13.50;3.77;;;13.10;99.90;;;;;;5026864;28;20437;-59
2023/07/14 05:03:57;;;;;;;6.97;3.50;;;13.20;99.90;;;;;;5030065;28;20473;-59
2023/07/14 05:06:23;;;;;;;10.80;3.50;;;13.20;99.90;;;;;;5032130;28;20187;-58
2023/07/14 05:08:49;;;;;;;10.57;3.70;;;13.30;99.90;;;;;;5023653;28;20442;-60
2023/07/14 05:11:15;;;;;;;8.03;3.80;;;13.30;99.90;;;;;;5031097;28;20873;-59
2023/07/14 05:13:40;;;;;;;10.23;4.00;;;13.30;99.90;;;;;;5030435;28;21024;-59
2023/07/14 05:16:06;;;;;;;8.50;4.20;;;13.40;99.90;;;;;;5027071;28;20433;-59
2023/07/14 05:18:32;;;;;;;4.50;3.90;;;13.40;99.90;;;;;;5029461;28;20187;-57
2023/07/14 05:21:00;;;;;;;7.63;4.40;;;13.40;99.90;;;;;;5028007;28;20499;-62
2023/07/14 05:23:27;;;;;;;7.33;3.70;;;13.50;99.90;;;;;;5026075;28;20245;-63
2023/07/14 05:25:53;;;;;;;9.47;3.93;;;13.50;99.90;;;;;;5027942;28;20934;-64
2023/07/14 05:28:19;;;;;;;6.67;3.93;;;13.50;99.90;;;;;;5026685;28;20445;-60
2023/07/14 05:30:45;;;;;;;9.63;3.73;;;13.60;99.90;;;;;;5033156;28;20430;-61
2023/07/14 05:33:12;;;;;;;4.40;3.83;;;13.70;99.90;;;;;;5036141;28;20198;-60
2023/07/14 05:35:38;;;;;;;4.00;3.60;;;13.70;99.90;;;;;;5032932;28;20187;-57
2023/07/14 05:38:05;;;;;;;4.20;3.63;;;13.70;99.90;;;;;;5037749;28;20452;-59
2023/07/14 05:40:34;;;;;;;6.40;4.10;;;13.80;99.90;;;;;;5033057;28;20434;-62
2023/07/14 05:43:00;;;;;;;8.20;3.63;;;13.90;99.90;;;;;;5033430;28;20472;-57
2023/07/14 05:45:28;;;;;;;12.90;3.93;;;14.00;99.90;;;;;;5036174;28;20458;-59
2023/07/14 05:47:54;;;;;;;11.20;3.90;;;14.10;99.90;;;;;;5039305;28;20262;-60
2023/07/14 05:50:19;;;;;;;7.10;4.00;;;14.20;99.90;;;;;;5033297;28;21013;-60
2023/07/14 05:52:46;;;;;;;9.03;4.30;;;14.20;99.90;;;;;;5033232;28;20187;-59
2023/07/14 05:55:11;;;;;;;5.13;3.80;;;14.30;99.90;;;;;;5036847;28;20246;-59
2023/07/14 05:57:37;;;;;;;12.30;4.40;;;14.30;99.90;;;;;;5034286;28;20430;-59
2023/07/14 06:00:13;;;;;;;4.40;3.53;;;14.40;99.90;;;;;;5035690;28;20191;-58
2023/07/14 06:02:43;;;;;;;9.53;3.83;;;14.50;99.90;;;;;;5031619;28;20243;-58
2023/07/14 06:05:09;;;;;;;6.77;3.67;;;14.60;99.90;;;;;;5032278;28;20548;-59
2023/07/14 06:07:36;;;;;;;7.73;3.50;;;14.70;99.90;;;;;;5031875;28;20850;-61
2023/07/14 06:10:02;;;;;;;6.40;3.50;;;14.80;99.90;;;;;;5034311;28;20426;-60
2023/07/14 06:12:28;;;;;;;5.80;3.67;;;14.90;99.90;;;;;;5027472;28;20438;-60
2023/07/14 06:14:53;;;;;;;5.17;3.40;;;15.00;99.90;;;;;;5033853;28;20469;-61
2023/07/14 06:17:19;;;;;;;4.97;3.20;;;15.00;99.60;;;;;;5026830;28;20617;-62
2023/07/14 06:19:44;;;;;;;9.03;3.60;;;15.20;99.70;;;;;;5034723;28;20194;-61
2023/07/14 06:22:10;;;;;;;5.20;3.50;;;15.30;99.90;;;;;;5035163;28;20237;-61
2023/07/14 06:24:36;;;;;;;9.73;4.70;;;15.50;99.80;;;;;;5040915;28;20302;-61
2023/07/14 06:27:03;;;;;;;5.77;4.43;;;15.60;99.30;;;;;;5031736;28;20275;-61
2023/07/14 06:29:29;;;;;;;11.40;4.00;;;15.70;99.90;;;;;;5037199;28;20179;-62
2023/07/14 06:31:55;;;;;;;4.13;3.50;;;15.90;99.60;;;;;;5026715;28;20419;-61
2023/07/14 06:34:20;;;;;;;6.53;3.87;;;16.00;98.00;;;;;;5029712;28;20199;-61
2023/07/14 06:36:46;;;;;;;9.33;4.53;;;16.20;97.20;;;;;;5030670;28;20183;-61
2023/07/14 06:39:12;;;;;;;12.00;5.30;;;16.30;96.00;;;;;;5038604;28;20318;-61
2023/07/14 06:41:38;;;;;;;13.50;5.00;;;16.40;94.50;;;;;;5039559;28;20175;-61
2023/07/14 06:44:04;;;;;;;10.70;4.57;;;16.50;91.80;;;;;;5032394;28;20327;-61
2023/07/14 06:46:31;;;;;;;7.07;4.33;;;16.60;91.90;;;;;;5027635;28;20481;-62
2023/07/14 06:48:57;;;;;;;8.70;3.93;;;16.70;91.70;;;;;;5032537;28;20454;-61
2023/07/14 06:51:24;;;;;;;9.60;3.90;;;16.80;91.50;;;;;;5035676;28;20431;-62
2023/07/14 06:53:49;;;;;;;8.10;4.00;;;16.90;91.30;;;;;;5034233;28;20554;-61
2023/07/14 06:56:15;;;;;;;6.37;3.20;;;16.90;91.60;;;;;;5037754;28;21022;-62
2023/07/14 06:58:41;;;;;;;3.87;3.17;;;17.00;90.30;;;;;;5038107;28;20702;-59
2023/07/14 07:01:07;;;;;;;8.17;3.00;;;17.10;88.70;;;;;;5030028;28;20442;-59
2023/07/14 07:03:34;;;;;;;4.67;3.63;;;17.20;87.10;;;;;;5026535;28;20672;-59
2023/07/14 07:06:00;;;;;;;6.03;3.67;;;17.40;85.80;;;;;;5026991;28;20210;-61
2023/07/14 07:08:25;;;;;;;7.00;3.70;;;17.50;83.10;;;;;;5031038;28;20462;-61
2023/07/14 07:10:52;;;;;;;5.70;3.30;;;17.70;82.70;;;;;;5034368;28;20187;-61
2023/07/14 07:13:18;;;;;;;8.37;2.73;;;17.90;80.50;;;;;;5041188;28;20188;-61
2023/07/14 07:15:43;;;;;;;9.33;3.00;;;18.00;78.70;;;;;;5039324;28;20962;-62
2023/07/14 07:18:09;;;;;;;4.93;3.17;;;18.10;78.70;;;;;;5041866;28;20233;-62
2023/07/14 07:20:42;;;;;;;2.43;2.13;;;18.20;78.40;;;;;;5029963;28;20183;-62
2023/07/14 07:23:09;;;;;;;5.00;2.90;;;18.40;78.60;;;;;;5027959;28;20209;-62
2023/07/14 07:25:35;;;;;;;5.47;2.40;;;18.50;78.20;;;;;;5032349;28;20450;-62
2023/07/14 07:28:01;;;;;;;3.73;2.97;;;18.70;77.00;;;;;;5036664;28;20432;-62
2023/07/14 07:30:26;;;;;;;5.10;2.90;;;18.90;75.20;;;;;;5036011;28;20506;-61
2023/07/14 07:32:52;;;;;;;13.47;3.47;;;19.00;74.20;;;;;;5034237;28;20183;-61
2023/07/14 07:35:18;;;;;;;5.17;2.90;;;19.10;73.50;;;;;;5032221;28;20207;-61
2023/07/14 07:37:44;;;;;;;4.67;3.20;;;19.20;70.90;;;;;;5028128;28;20187;-57
2023/07/14 07:40:11;;;;;;;5.90;2.80;;;19.30;69.50;;;;;;5019277;28;20442;-60
2023/07/14 07:42:37;;;;;;;5.07;3.13;;;19.40;68.20;;;;;;5031814;28;20473;-61
2023/07/14 07:45:04;;;;;;;12.80;3.10;;;19.50;66.70;;;;;;5033380;28;20470;-59
2023/07/14 07:47:29;;;;;;;8.57;3.53;;;19.50;67.40;;;;;;5041293;28;21075;-59
2023/07/14 07:49:55;;;;;;;3.03;2.73;;;19.60;66.70;;;;;;5037200;28;20435;-59
2023/07/14 07:52:20;;;;;;;6.60;3.13;;;19.70;66.90;;;;;;5037895;28;20180;-60
2023/07/14 07:54:46;;;;;;;4.07;2.87;;;19.90;67.90;;;;;;5032050;28;20210;-61
2023/07/14 07:57:12;;;;;;;4.80;2.90;;;20.00;68.10;;;;;;5040411;28;20209;-63
2023/07/14 07:59:38;;;;;;;6.10;3.20;;;20.00;67.00;;;;;;5041648;28;20191;-61
2023/07/14 08:02:06;;;;;;;4.40;2.60;;;20.20;66.30;;;;;;5027729;28;20179;-60
2023/07/14 08:04:32;;;;;;;7.87;2.70;;;20.30;66.10;;;;;;5032555;28;20454;-62
2023/07/14 08:06:58;;;;;;;6.03;2.83;;;20.40;66.60;;;;;;5021421;28;20433;-62
2023/07/14 08:09:24;;;;;;;8.53;2.97;;;20.50;65.80;;;;;;5031607;28;20242;-61
2023/07/14 08:11:57;;;;;;;5.57;2.73;;;20.60;65.40;;;;;;5037702;28;20652;-61
2023/07/14 08:14:23;;;;;;;6.13;2.43;;;20.70;64.00;;;;;;5035154;28;20211;-61
2023/07/14 08:16:48;;;;;;;5.93;2.90;;;20.70;64.20;;;;;;5036731;28;20441;-61
2023/07/14 08:19:14;;;;;;;2.93;2.20;;;20.80;64.10;;;;;;5033614;28;20179;-61
2023/07/14 08:21:40;;;;;;;6.27;2.60;;;20.80;63.40;;;;;;5033173;28;22357;-60
2023/07/14 08:24:08;;;;;;;2.90;2.60;;;20.90;63.30;;;;;;5026784;28;20241;-62
2023/07/14 08:26:34;;;;;;;8.10;2.77;;;21.00;64.00;;;;;;5030961;28;20446;-63
2023/07/14 08:29:00;;;;;;;7.93;2.67;;;21.00;63.80;;;;;;5032593;28;20435;-62
2023/07/14 08:31:26;;;;;;;4.87;2.87;;;21.10;62.70;;;;;;5032704;28;20445;-62
2023/07/14 08:33:51;;;;;;;4.10;2.50;;;21.20;62.70;;;;;;5031541;28;20203;-61
2023/07/14 08:36:18;;;;;;;6.30;2.53;;;21.30;62.20;;;;;;5027318;28;20187;-62
2023/07/14 08:38:43;;;;;;;5.30;2.83;;;21.40;61.80;;;;;;5019143;28;20186;-62
2023/07/14 08:41:28;;;;;;;4.63;2.37;;;21.40;60.80;;;;;;5024547;28;21185;-61
2023/07/14 08:44:24;;;;;;;2.90;2.43;;;21.50;59.60;;;;;;5023998;28;20298;-62
2023/07/14 08:47:01;;;;;;;6.27;2.70;;;21.60;59.60;;;;;;5025187;28;20442;-61
2023/07/14 08:49:45;;;;;;;4.60;2.50;;;21.60;59.70;;;;;;5027392;28;20433;-63
2023/07/14 08:52:24;;;;;;;4.80;2.50;;;21.70;59.70;;;;;;5028051;28;21507;-62
2023/07/14 08:55:16;;;;;;;3.23;2.40;;;21.80;59.60;;;;;;5025408;28;20446;-62
2023/07/14 08:57:49;;;;;;;8.93;3.20;;;21.90;59.60;;;;;;5022206;28;20431;-62
2023/07/14 09:00:30;;;;;;;5.87;2.60;;;22.00;59.60;;;;;;5024549;28;20433;-62
2023/07/14 09:03:14;;;;;;;7.30;2.57;;;22.00;59.00;;;;;;5032546;28;20595;-63
2023/07/14 09:05:49;;;;;;;10.20;3.23;;;22.00;58.50;;;;;;5034346;28;20502;-63
2023/07/14 09:08:15;;;;;;;6.93;3.00;;;22.10;59.10;;;;;;5030906;28;20434;-64
2023/07/14 09:11:05;;;;;;;3.60;2.90;;;22.10;57.50;;;;;;5026063;28;20442;-64
2023/07/14 09:14:10;;;;;;;8.30;2.30;;;22.10;58.20;;;;;;5027364;28;20476;-63
2023/07/14 09:16:40;;;;;;;4.90;2.30;;;22.20;58.00;;;;;;5022353;28;20465;-63
2023/07/14 09:19:23;;;;;;;10.33;3.70;;;22.20;57.80;;;;;;5033040;28;20435;-61
2023/07/14 09:22:05;;;;;;;8.10;3.23;;;22.20;57.20;;;;;;5029360;28;20520;-62
2023/07/14 09:25:06;;;;;;;5.47;2.90;;;22.40;57.60;;;;;;5035798;28;20475;-64
2023/07/14 09:27:31;;;;;;;6.30;2.83;;;22.50;57.90;;;;;;5021732;28;20430;-62
2023/07/14 09:29:59;;;;;;;5.73;2.70;;;22.60;57.80;;;;;;5030857;28;20473;-63
2023/07/14 09:32:35;;;;;;;7.43;3.00;;;22.60;57.20;;;;;;5025690;28;20179;-61
2023/07/14 09:35:17;;;;;;;7.27;2.70;;;22.70;57.10;;;;;;5021584;28;20449;-60
2023/07/14 09:38:07;;;;;;;6.00;2.53;;;22.90;56.20;;;;;;5029792;28;20449;-62
2023/07/14 09:40:38;;;;;;;4.53;2.53;;;23.00;55.60;;;;;;5030721;28;20469;-60
2023/07/14 09:43:06;;;;;;;9.60;3.03;;;23.10;55.50;;;;;;5028938;28;20461;-63
2023/07/14 09:45:33;;;;;;;8.93;2.60;;;23.20;55.10;;;;;;5035376;28;20456;-63
2023/07/14 09:48:26;;;;;;;7.43;3.13;;;23.20;54.80;;;;;;5036829;28;20433;-63
2023/07/14 09:51:10;;;;;;;9.30;2.60;;;23.30;55.60;;;;;;5024790;28;20524;-62
2023/07/14 09:53:37;;;;;;;2.90;2.40;;;23.30;55.20;;;;;;5034000;28;20469;-62
2023/07/14 09:56:12;;;;;;;4.83;2.63;;;23.30;54.20;;;;;;5032595;28;20491;-62
2023/07/14 09:58:38;;;;;;;5.80;2.50;;;23.30;52.90;;;;;;5034115;28;20437;-62
2023/07/14 10:01:12;;;;;;;3.90;2.30;;;23.30;53.20;;;;;;5026521;28;20446;-61
2023/07/14 10:03:51;;;;;;;2.47;2.17;;;23.50;52.60;;;;;;5022764;28;20543;-59
2023/07/14 10:06:25;;;;;;;3.70;2.23;;;23.60;50.50;;;;;;5033701;28;20444;-60
2023/07/14 10:08:58;;;;;;;7.63;2.70;;;23.60;50.20;;;;;;5032141;28;20516;-62
2023/07/14 10:11:25;;;;;;;3.87;2.57;;;23.70;50.20;;;;;;5034961;28;20518;-61
2023/07/14 10:13:57;;;;;;;3.20;2.30;;;23.70;49.90;;;;;;5031195;28;22483;-59
2023/07/14 10:16:24;;;;;;;3.30;2.40;;;23.80;49.30;;;;;;5035749;28;20444;-61
2023/07/14 10:19:05;;;;;;;3.53;2.40;;;23.80;49.50;;;;;;5042873;28;20582;-62
2023/07/14 10:21:34;;;;;;;2.50;1.90;;;23.90;50.10;;;;;;5040144;28;20432;-59
2023/07/14 10:24:08;;;;;;;4.70;2.30;;;24.00;49.90;;;;;;5030628;28;20480;-64
2023/07/14 10:26:38;;;;;;;3.83;2.30;;;24.10;47.60;;;;;;5029830;28;20563;-62
2023/07/14 10:29:06;;;;;;;3.90;1.90;;;24.20;48.60;;;;;;5033026;28;20453;-61
2023/07/14 10:31:40;;;;;;;3.23;1.90;;;24.20;49.00;;;;;;5026289;28;20422;-61
2023/07/14 10:34:08;;;;;;;3.60;2.63;;;24.30;48.40;;;;;;5030587;28;20535;-58
2023/07/14 10:36:37;;;;;;;3.43;2.60;;;24.30;47.70;;;;;;5032229;28;21000;-61
2023/07/14 10:39:29;;;;;;;8.83;2.60;;;24.30;48.30;;;;;;5023915;28;20442;-61
2023/07/14 10:41:56;;;;;;;14.03;6.53;;;24.40;49.70;;;;;;5036353;28;21076;-61
2023/07/14 10:44:27;;;;;;;9.13;2.57;;;24.50;50.20;;;;;;5036117;28;20562;-61
2023/07/14 10:47:02;;;;;;;5.33;2.23;;;24.60;50.00;;;;;;5034003;28;20493;-60
2023/07/14 10:49:42;;;;;;;8.90;2.10;;;24.70;49.10;;;;;;5033343;28;20518;-60
2023/07/14 10:52:23;;;;;;;3.23;2.13;;;24.90;47.40;;;;;;5032051;28;20432;-61
2023/07/14 10:55:13;;;;;;;9.23;2.50;;;25.00;48.00;;;;;;5034118;28;20472;-59
2023/07/14 10:58:05;;;;;;;3.67;1.90;;;25.10;48.20;;;;;;5034426;28;20434;-60
2023/07/14 11:00:47;;;;;;;2.50;2.03;;;25.20;47.50;;;;;;5034971;28;20966;-63
2023/07/14 11:03:44;;;;;;;5.60;2.10;;;25.20;47.50;;;;;;5034451;28;21023;-61
2023/07/14 11:06:27;;;;;;;4.60;2.40;;;25.40;48.40;;;;;;5033785;28;20514;-59
2023/07/14 11:08:55;;;;;;;4.87;2.73;;;25.40;49.10;;;;;;5033100;28;20429;-62
2023/07/14 11:11:41;;;;;;;3.90;2.20;;;25.50;48.90;;;;;;5032832;28;20482;-62
2023/07/14 11:14:22;;;;;;;4.50;2.23;;;25.40;48.70;;;;;;5032716;28;21092;-61
2023/07/14 11:17:07;;;;;;;5.60;2.40;;;25.50;47.60;;;;;;5038281;28;20476;-62
2023/07/14 11:19:51;;;;;;;4.07;2.43;;;25.60;47.90;;;;;;5037085;28;20420;-60
2023/07/14 11:22:16;;;;;;;4.20;2.37;;;25.60;47.60;;;;;;5032033;28;20424;-60
2023/07/14 11:25:14;;;;;;;3.43;2.13;;;25.80;46.00;;;;;;5035064;28;20461;-61
2023/07/14 11:27:52;;;;;;;9.30;2.60;;;25.90;46.70;;;;;;5025020;28;20224;-60
2023/07/14 11:30:25;;;;;;;4.97;2.43;;;25.80;46.10;;;;;;5029436;28;20427;-60
2023/07/14 11:33:19;;;;;;;3.33;2.17;;;25.90;46.20;;;;;;5035055;28;20436;-60
2023/07/14 11:35:56;;;;;;;4.47;2.10;;;26.10;46.70;;;;;;5024039;28;21190;-61
2023/07/14 11:38:52;;;;;;;3.00;2.50;;;26.20;45.90;;;;;;5031953;28;20445;-60
2023/07/14 11:41:20;;;;;;;4.60;2.83;;;26.40;44.90;;;;;;5031350;28;20453;-59
2023/07/14 11:43:46;;;;;;;3.70;2.67;;;26.40;45.60;;;;;;5032306;28;20529;-59
2023/07/14 11:46:18;;;;;;;8.20;3.33;;;26.50;47.90;;;;;;5028615;28;20432;-60
2023/07/14 11:49:02;;;;;;;6.93;2.77;;;26.80;48.10;;;;;;5025447;28;20435;-60
2023/07/14 11:51:53;;;;;;;4.20;2.43;;;26.90;46.90;;;;;;5027608;28;20174;-59
2023/07/14 11:54:18;;;;;;;6.03;3.30;;;26.90;47.20;;;;;;5028754;28;20454;-58
2023/07/14 11:57:01;;;;;;;6.37;2.43;;;26.90;48.00;;;;;;5021958;28;20444;-58
2023/07/14 11:59:29;;;;;;;5.27;2.50;;;26.80;48.10;;;;;;5021963;28;20187;-59
2023/07/14 12:02:15;;;;;;;4.10;2.27;;;26.60;49.10;;;;;;5032113;28;20178;-59
2023/07/14 12:04:40;;;;;;;2.50;2.30;;;26.60;49.00;;;;;;5037954;28;20217;-60
2023/07/14 12:07:16;;;;;;;8.43;2.60;;;26.60;47.90;;;;;;5031128;28;20641;-61
2023/07/14 12:10:15;;;;;;;4.93;2.90;;;26.50;48.00;;;;;;5038436;28;20870;-60
2023/07/14 12:13:01;;;;;;;4.10;2.50;;;26.50;48.80;;;;;;5029423;28;20432;-62
2023/07/14 12:15:47;;;;;;;11.30;2.57;;;26.40;49.60;;;;;;5028956;28;20228;-62
2023/07/14 12:18:25;;;;;;;3.77;2.70;;;26.50;50.30;;;;;;5027598;28;20183;-62
2023/07/14 12:20:51;;;;;;;3.13;2.20;;;26.40;50.70;;;;;;5030155;28;20178;-61
2023/07/14 12:23:27;;;;;;;3.63;2.50;;;26.50;49.40;;;;;;5028697;28;20477;-61
2023/07/14 12:26:17;;;;;;;3.20;2.20;;;26.40;46.30;;;;;;5027870;28;20262;-61
2023/07/14 12:28:43;;;;;;;2.60;2.27;;;26.50;46.00;;;;;;5025510;28;20186;-61
2023/07/14 12:31:18;;;;;;;4.50;2.80;;;26.30;45.30;;;;;;5024138;28;20483;-60
2023/07/14 12:33:46;;;;;;;5.33;2.67;;;26.40;45.70;;;;;;5031523;28;20264;-61
2023/07/14 12:36:16;;;;;;;5.20;2.27;;;26.50;45.90;;;;;;5040701;28;20170;-62
2023/07/14 12:38:49;;;;;;;5.37;2.93;;;26.60;46.70;;;;;;5041586;28;20195;-60
2023/07/14 12:41:19;;;;;;;6.20;2.50;;;26.60;46.50;;;;;;5043385;28;20186;-60
2023/07/14 12:43:48;;;;;;;5.10;2.87;;;26.60;44.90;;;;;;5045110;28;20213;-61
2023/07/14 12:46:31;;;;;;;3.27;2.87;;;26.70;46.40;;;;;;5040120;28;20170;-62
2023/07/14 12:49:19;;;;;;;3.37;2.53;;;26.90;46.00;;;;;;5039616;28;20235;-60
2023/07/14 12:51:45;;;;;;;4.07;2.57;;;27.10;45.90;;;;;;5038063;28;20176;-60
2023/07/14 12:54:24;;;;;;;4.13;2.20;;;27.30;46.10;;;;;;5049073;28;20244;-61
2023/07/14 12:56:49;;;;;;;3.87;2.43;;;27.20;44.50;;;;;;5035240;28;20174;-62
2023/07/14 12:59:17;;;;;;;3.83;2.43;;;27.00;44.50;;;;;;5044002;28;20187;-61
2023/07/14 13:01:44;;;;;;;4.07;2.63;;;26.70;46.10;;;;;;5037380;28;20665;-61
2023/07/14 13:04:11;;;;;;;3.00;2.43;;;26.50;46.90;;;;;;5044247;28;20213;-61